Alginet, Spain
Current Conditions -  °F | °C
As of 1:30 AM on Tuesday 23 Dec 2014 (Local Time) from LEVC Reporting Station
Few Clouds Few Clouds  
Wind Chill: 43°   Ceiling: Unl
Heat Index: 43°   Visibility: 6mi
Dew Point: 41°   Wind: 1mph
Humidity: 93%   Direction: NA
Pressure: 30.45"   Gusts: NA
Location:  39.27°N, 0.47°W
Report Text: LEVC 230030Z VRB01KT 9999 FEW008 06/05 Q1031 BECMG 3000 BR
Loading
Personal Weather Stations






























Interactive Weather Map New forecast layout! Learn more

10-Day Weather Forecast

Advertisements
Track Severe Weather on mobile